sensor_id;sensor_type;location;lat;lon;timestamp;pressure;altitude;pressure_sealevel;temperature;humidity
21902;BME280;11115;46.038;14.612;2023-04-29T00:00:06;98315.81;;;10.49;100.00
21902;BME280;11115;46.038;14.612;2023-04-29T00:02:39;98310.78;;;10.51;100.00
21902;BME280;11115;46.038;14.612;2023-04-29T00:05:10;98310.41;;;10.44;100.00
21902;BME280;11115;46.038;14.612;2023-04-29T00:07:44;98315.97;;;10.30;100.00
21902;BME280;11115;46.038;14.612;2023-04-29T00:10:22;98313.63;;;10.10;100.00
21902;BME280;11115;46.038;14.612;2023-04-29T00:13:09;98294.69;;;10.03;100.00
21902;BME280;11115;46.038;14.612;2023-04-29T00:15:40;98291.56;;;10.32;100.00
21902;BME280;11115;46.038;14.612;2023-04-29T00:18:11;98241.28;;;9.94;100.00
21902;BME280;11115;46.038;14.612;2023-04-29T00:20:44;98292.50;;;10.14;100.00
21902;BME280;11115;46.038;14.612;2023-04-29T00:23:21;98275.84;;;10.05;100.00
21902;BME280;11115;46.038;14.612;2023-04-29T00:25:49;98278.69;;;10.14;100.00
21902;BME280;11115;46.038;14.612;2023-04-29T00:28:22;98280.50;;;10.18;100.00
21902;BME280;11115;46.038;14.612;2023-04-29T00:30:54;98275.13;;;10.13;100.00
21902;BME280;11115;46.038;14.612;2023-04-29T00:33:22;98256.00;;;10.03;100.00
21902;BME280;11115;46.038;14.612;2023-04-29T00:35:56;98255.94;;;10.30;100.00
21902;BME280;11115;46.038;14.612;2023-04-29T00:38:24;98243.38;;;10.24;100.00
21902;BME280;11115;46.038;14.612;2023-04-29T00:40:55;98253.09;;;10.22;100.00
21902;BME280;11115;46.038;14.612;2023-04-29T00:43:30;98245.88;;;10.34;100.00
21902;BME280;11115;46.038;14.612;2023-04-29T00:46:06;98237.09;;;10.55;100.00
21902;BME280;11115;46.038;14.612;2023-04-29T00:48:42;98232.94;;;10.66;100.00
21902;BME280;11115;46.038;14.612;2023-04-29T00:51:20;98229.69;;;10.42;100.00
21902;BME280;11115;46.038;14.612;2023-04-29T00:53:50;98226.53;;;10.34;100.00
21902;BME280;11115;46.038;14.612;2023-04-29T00:56:27;98231.34;;;10.43;100.00
21902;BME280;11115;46.038;14.612;2023-04-29T00:59:08;98240.22;;;10.40;100.00
21902;BME280;11115;46.038;14.612;2023-04-29T01:01:42;98223.78;;;10.34;100.00
21902;BME280;11115;46.038;14.612;2023-04-29T01:04:18;98216.25;;;10.26;100.00
21902;BME280;11115;46.038;14.612;2023-04-29T01:10:02;98216.25;;;10.13;100.00
21902;BME280;11115;46.038;14.612;2023-04-29T01:12:53;98216.91;;;9.96;100.00
21902;BME280;11115;46.038;14.612;2023-04-29T01:16:01;98219.38;;;9.97;100.00
21902;BME280;11115;46.038;14.612;2023-04-29T01:18:40;98222.31;;;10.01;100.00
21902;BME280;11115;46.038;14.612;2023-04-29T01:21:19;98228.72;;;9.88;100.00
21902;BME280;11115;46.038;14.612;2023-04-29T01:24:04;98212.28;;;9.55;100.00
21902;BME280;11115;46.038;14.612;2023-04-29T01:26:55;98235.81;;;9.53;100.00
21902;BME280;11115;46.038;14.612;2023-04-29T01:29:50;98243.50;;;9.56;100.00
21902;BME280;11115;46.038;14.612;2023-04-29T01:38:41;98247.69;;;9.53;100.00
21902;BME280;11115;46.038;14.612;2023-04-29T01:41:21;98251.38;;;9.35;100.00
21902;BME280;11115;46.038;14.612;2023-04-29T01:44:19;98255.16;;;9.39;100.00
21902;BME280;11115;46.038;14.612;2023-04-29T01:46:52;98257.72;;;9.49;100.00
21902;BME280;11115;46.038;14.612;2023-04-29T01:49:34;98257.78;;;9.44;100.00
21902;BME280;11115;46.038;14.612;2023-04-29T01:52:19;98278.66;;;9.36;100.00
21902;BME280;11115;46.038;14.612;2023-04-29T01:55:03;98278.16;;;9.48;100.00
21902;BME280;11115;46.038;14.612;2023-04-29T01:58:01;98269.03;;;9.61;100.00
21902;BME280;11115;46.038;14.612;2023-04-29T02:01:07;98248.81;;;9.66;100.00
21902;BME280;11115;46.038;14.612;2023-04-29T02:03:53;98230.16;;;9.85;100.00
21902;BME280;11115;46.038;14.612;2023-04-29T02:06:25;98216.34;;;9.85;100.00
21902;BME280;11115;46.038;14.612;2023-04-29T02:09:03;98212.84;;;9.80;100.00
21902;BME280;11115;46.038;14.612;2023-04-29T02:11:36;98205.22;;;9.63;100.00
21902;BME280;11115;46.038;14.612;2023-04-29T02:14:12;98223.94;;;9.66;100.00
21902;BME280;11115;46.038;14.612;2023-04-29T02:16:53;98214.63;;;9.62;100.00
21902;BME280;11115;46.038;14.612;2023-04-29T02:19:21;98215.25;;;9.59;100.00
21902;BME280;11115;46.038;14.612;2023-04-29T02:21:54;98219.88;;;9.50;100.00
21902;BME280;11115;46.038;14.612;2023-04-29T02:24:42;98214.56;;;9.39;100.00
21902;BME280;11115;46.038;14.612;2023-04-29T02:27:19;98191.03;;;9.42;100.00
21902;BME280;11115;46.038;14.612;2023-04-29T02:30:02;98181.03;;;9.32;100.00
21902;BME280;11115;46.038;14.612;2023-04-29T02:32:35;98211.28;;;9.37;100.00
21902;BME280;11115;46.038;14.612;2023-04-29T02:35:07;98198.72;;;9.18;100.00
21902;BME280;11115;46.038;14.612;2023-04-29T02:37:43;98207.19;;;8.94;100.00
21902;BME280;11115;46.038;14.612;2023-04-29T02:40:13;98191.94;;;8.82;100.00
21902;BME280;11115;46.038;14.612;2023-04-29T02:42:57;98198.97;;;8.61;100.00
21902;BME280;11115;46.038;14.612;2023-04-29T02:45:44;98191.41;;;8.67;100.00
21902;BME280;11115;46.038;14.612;2023-04-29T02:48:12;98189.31;;;8.91;100.00
21902;BME280;11115;46.038;14.612;2023-04-29T02:50:46;98198.41;;;9.05;100.00
21902;BME280;11115;46.038;14.612;2023-04-29T02:53:28;98191.97;;;8.96;100.00
21902;BME280;11115;46.038;14.612;2023-04-29T02:56:12;98197.19;;;8.98;100.00
21902;BME280;11115;46.038;14.612;2023-04-29T02:58:44;98195.84;;;8.95;100.00
21902;BME280;11115;46.038;14.612;2023-04-29T03:01:35;98191.03;;;9.01;100.00
21902;BME280;11115;46.038;14.612;2023-04-29T03:04:12;98194.13;;;9.27;100.00
21902;BME280;11115;46.038;14.612;2023-04-29T03:06:50;98187.97;;;9.16;100.00
21902;BME280;11115;46.038;14.612;2023-04-29T03:09:22;98189.84;;;9.07;100.00
21902;BME280;11115;46.038;14.612;2023-04-29T03:12:04;98191.84;;;9.01;100.00
21902;BME280;11115;46.038;14.612;2023-04-29T03:14:34;98179.81;;;9.11;100.00
21902;BME280;11115;46.038;14.612;2023-04-29T03:17:05;98184.19;;;8.98;100.00
21902;BME280;11115;46.038;14.612;2023-04-29T03:19:40;98181.03;;;9.05;100.00
21902;BME280;11115;46.038;14.612;2023-04-29T03:22:17;98169.59;;;8.98;100.00
21902;BME280;11115;46.038;14.612;2023-04-29T03:25:07;98176.94;;;9.02;100.00
21902;BME280;11115;46.038;14.612;2023-04-29T03:27:38;98179.59;;;8.80;100.00
21902;BME280;11115;46.038;14.612;2023-04-29T03:30:06;98132.44;;;8.35;100.00
21902;BME280;11115;46.038;14.612;2023-04-29T03:32:49;98175.81;;;8.76;100.00
21902;BME280;11115;46.038;14.612;2023-04-29T03:35:20;98178.97;;;8.83;100.00
21902;BME280;11115;46.038;14.612;2023-04-29T03:38:12;98175.22;;;8.93;100.00
21902;BME280;11115;46.038;14.612;2023-04-29T03:40:55;98162.63;;;8.73;100.00
21902;BME280;11115;46.038;14.612;2023-04-29T03:43:32;98175.81;;;8.76;100.00
21902;BME280;11115;46.038;14.612;2023-04-29T03:46:03;98171.13;;;8.44;100.00
21902;BME280;11115;46.038;14.612;2023-04-29T03:48:45;98180.00;;;8.41;100.00
21902;BME280;11115;46.038;14.612;2023-04-29T03:51:18;98178.69;;;8.38;100.00
21902;BME280;11115;46.038;14.612;2023-04-29T03:53:52;98167.56;;;8.43;100.00
21902;BME280;11115;46.038;14.612;2023-04-29T03:56:21;98171.06;;;8.63;100.00
21902;BME280;11115;46.038;14.612;2023-04-29T03:58:54;98178.88;;;8.74;100.00
21902;BME280;11115;46.038;14.612;2023-04-29T04:01:39;98176.59;;;8.63;100.00
21902;BME280;11115;46.038;14.612;2023-04-29T04:04:11;98185.72;;;8.44;100.00
21902;BME280;11115;46.038;14.612;2023-04-29T04:06:45;98199.16;;;8.51;100.00
21902;BME280;11115;46.038;14.612;2023-04-29T04:09:21;98191.44;;;8.34;100.00
21902;BME280;11115;46.038;14.612;2023-04-29T04:11:49;98179.13;;;8.27;100.00
21902;BME280;11115;46.038;14.612;2023-04-29T04:14:20;98197.53;;;8.31;100.00
21902;BME280;11115;46.038;14.612;2023-04-29T04:16:50;98205.28;;;8.29;100.00
21902;BME280;11115;46.038;14.612;2023-04-29T04:19:21;98200.53;;;8.16;100.00
21902;BME280;11115;46.038;14.612;2023-04-29T04:21:49;98195.75;;;8.40;100.00
21902;BME280;11115;46.038;14.612;2023-04-29T04:24:22;98203.34;;;8.48;100.00
21902;BME280;11115;46.038;14.612;2023-04-29T04:26:53;98198.75;;;8.58;100.00
21902;BME280;11115;46.038;14.612;2023-04-29T04:29:43;98208.78;;;8.81;100.00
21902;BME280;11115;46.038;14.612;2023-04-29T04:32:17;98201.78;;;8.89;100.00
21902;BME280;11115;46.038;14.612;2023-04-29T04:34:49;98204.31;;;8.85;100.00
21902;BME280;11115;46.038;14.612;2023-04-29T04:37:23;98196.63;;;8.82;100.00
21902;BME280;11115;46.038;14.612;2023-04-29T04:39:56;98199.66;;;8.67;100.00
21902;BME280;11115;46.038;14.612;2023-04-29T04:42:34;98204.09;;;8.68;100.00
21902;BME280;11115;46.038;14.612;2023-04-29T04:45:17;98214.09;;;8.77;100.00
21902;BME280;11115;46.038;14.612;2023-04-29T04:47:49;98209.50;;;8.87;100.00
21902;BME280;11115;46.038;14.612;2023-04-29T04:50:29;98202.78;;;8.93;100.00
21902;BME280;11115;46.038;14.612;2023-04-29T04:52:57;98189.31;;;9.05;100.00
21902;BME280;11115;46.038;14.612;2023-04-29T04:55:43;98211.81;;;9.12;100.00
21902;BME280;11115;46.038;14.612;2023-04-29T04:58:28;98212.19;;;9.05;100.00
21902;BME280;11115;46.038;14.612;2023-04-29T05:01:09;98216.00;;;9.09;100.00
21902;BME280;11115;46.038;14.612;2023-04-29T05:03:40;98211.50;;;9.13;100.00
21902;BME280;11115;46.038;14.612;2023-04-29T05:06:13;98214.75;;;9.16;100.00
21902;BME280;11115;46.038;14.612;2023-04-29T05:08:47;98211.72;;;9.31;100.00
21902;BME280;11115;46.038;14.612;2023-04-29T05:11:23;98220.38;;;9.24;100.00
21902;BME280;11115;46.038;14.612;2023-04-29T05:14:05;98225.63;;;9.26;100.00
21902;BME280;11115;46.038;14.612;2023-04-29T05:16:36;98225.72;;;9.48;100.00
21902;BME280;11115;46.038;14.612;2023-04-29T05:19:04;98219.25;;;9.39;100.00
21902;BME280;11115;46.038;14.612;2023-04-29T05:21:39;98239.41;;;9.39;100.00
21902;BME280;11115;46.038;14.612;2023-04-29T05:24:11;98231.03;;;9.31;100.00
21902;BME280;11115;46.038;14.612;2023-04-29T05:26:44;98228.47;;;9.48;100.00
21902;BME280;11115;46.038;14.612;2023-04-29T05:29:45;98226.72;;;9.52;100.00
21902;BME280;11115;46.038;14.612;2023-04-29T05:32:23;98233.75;;;9.72;100.00
21902;BME280;11115;46.038;14.612;2023-04-29T05:35:01;98222.84;;;9.53;100.00
21902;BME280;11115;46.038;14.612;2023-04-29T05:37:35;98229.78;;;9.64;100.00
21902;BME280;11115;46.038;14.612;2023-04-29T05:40:33;98224.34;;;9.73;100.00
21902;BME280;11115;46.038;14.612;2023-04-29T05:43:29;98232.00;;;9.76;100.00
21902;BME280;11115;46.038;14.612;2023-04-29T05:46:06;98243.84;;;9.90;100.00
21902;BME280;11115;46.038;14.612;2023-04-29T05:48:37;98245.38;;;9.96;100.00
21902;BME280;11115;46.038;14.612;2023-04-29T05:51:11;98239.50;;;10.12;100.00
21902;BME280;11115;46.038;14.612;2023-04-29T05:53:43;98250.38;;;10.08;100.00
21902;BME280;11115;46.038;14.612;2023-04-29T05:56:18;98246.28;;;10.06;100.00
21902;BME280;11115;46.038;14.612;2023-04-29T05:58:46;98257.41;;;10.28;100.00
21902;BME280;11115;46.038;14.612;2023-04-29T06:01:32;98255.75;;;10.27;100.00
21902;BME280;11115;46.038;14.612;2023-04-29T06:04:24;98266.38;;;10.33;100.00
21902;BME280;11115;46.038;14.612;2023-04-29T06:07:40;98262.38;;;10.62;100.00
21902;BME280;11115;46.038;14.612;2023-04-29T06:10:31;98264.03;;;10.63;100.00
21902;BME280;11115;46.038;14.612;2023-04-29T06:12:59;98273.06;;;10.55;100.00
21902;BME280;11115;46.038;14.612;2023-04-29T06:15:31;98276.09;;;10.67;100.00
21902;BME280;11115;46.038;14.612;2023-04-29T06:18:05;98274.94;;;10.68;100.00
21902;BME280;11115;46.038;14.612;2023-04-29T06:20:38;98257.34;;;10.64;100.00
21902;BME280;11115;46.038;14.612;2023-04-29T06:23:08;98260.84;;;10.78;100.00
21902;BME280;11115;46.038;14.612;2023-04-29T06:25:41;98259.22;;;11.00;100.00
21902;BME280;11115;46.038;14.612;2023-04-29T06:28:13;98231.47;;;10.91;100.00
21902;BME280;11115;46.038;14.612;2023-04-29T06:30:56;98223.97;;;10.91;100.00
21902;BME280;11115;46.038;14.612;2023-04-29T06:33:28;98244.00;;;11.19;100.00
21902;BME280;11115;46.038;14.612;2023-04-29T06:36:05;98238.59;;;11.14;100.00
21902;BME280;11115;46.038;14.612;2023-04-29T06:38:53;98222.38;;;11.30;100.00
21902;BME280;11115;46.038;14.612;2023-04-29T06:41:44;98234.91;;;11.28;100.00
21902;BME280;11115;46.038;14.612;2023-04-29T06:44:37;98239.47;;;11.32;100.00
21902;BME280;11115;46.038;14.612;2023-04-29T06:47:25;98241.16;;;11.42;100.00
21902;BME280;11115;46.038;14.612;2023-04-29T06:50:05;98258.78;;;11.54;100.00
21902;BME280;11115;46.038;14.612;2023-04-29T06:52:38;98254.53;;;11.48;100.00
21902;BME280;11115;46.038;14.612;2023-04-29T06:55:11;98235.56;;;11.33;100.00
21902;BME280;11115;46.038;14.612;2023-04-29T06:57:42;98249.63;;;11.45;100.00
21902;BME280;11115;46.038;14.612;2023-04-29T07:00:13;98252.09;;;11.55;100.00
21902;BME280;11115;46.038;14.612;2023-04-29T07:02:48;98261.47;;;11.77;100.00
21902;BME280;11115;46.038;14.612;2023-04-29T07:05:20;98255.50;;;11.83;100.00
21902;BME280;11115;46.038;14.612;2023-04-29T07:07:52;98262.84;;;11.88;100.00
21902;BME280;11115;46.038;14.612;2023-04-29T07:10:24;98243.94;;;12.07;100.00
21902;BME280;11115;46.038;14.612;2023-04-29T07:13:06;98250.16;;;12.04;100.00
21902;BME280;11115;46.038;14.612;2023-04-29T07:15:36;98258.97;;;12.15;100.00
21902;BME280;11115;46.038;14.612;2023-04-29T07:18:21;98260.09;;;12.14;100.00
21902;BME280;11115;46.038;14.612;2023-04-29T07:20:51;98259.94;;;12.28;100.00
21902;BME280;11115;46.038;14.612;2023-04-29T07:23:23;98258.81;;;12.29;100.00
21902;BME280;11115;46.038;14.612;2023-04-29T07:25:54;98262.88;;;12.31;100.00
21902;BME280;11115;46.038;14.612;2023-04-29T07:28:24;98263.06;;;12.43;100.00
21902;BME280;11115;46.038;14.612;2023-04-29T07:30:55;98268.13;;;12.41;100.00
21902;BME280;11115;46.038;14.612;2023-04-29T07:33:23;98265.69;;;12.40;100.00
21902;BME280;11115;46.038;14.612;2023-04-29T07:36:06;98267.47;;;12.62;100.00
21902;BME280;11115;46.038;14.612;2023-04-29T07:38:43;98268.59;;;12.69;100.00
21902;BME280;11115;46.038;14.612;2023-04-29T07:41:16;98263.38;;;12.76;100.00
21902;BME280;11115;46.038;14.612;2023-04-29T07:44:14;98260.13;;;12.74;100.00
21902;BME280;11115;46.038;14.612;2023-04-29T07:46:47;98260.94;;;12.75;100.00
21902;BME280;11115;46.038;14.612;2023-04-29T07:49:17;98269.06;;;12.89;100.00
21902;BME280;11115;46.038;14.612;2023-04-29T07:51:48;98271.16;;;12.92;100.00
21902;BME280;11115;46.038;14.612;2023-04-29T07:54:36;98271.66;;;13.02;100.00
21902;BME280;11115;46.038;14.612;2023-04-29T07:57:10;98274.28;;;12.90;100.00
21902;BME280;11115;46.038;14.612;2023-04-29T07:59:40;98275.28;;;12.94;100.00
21902;BME280;11115;46.038;14.612;2023-04-29T08:02:09;98280.13;;;13.15;100.00
21902;BME280;11115;46.038;14.612;2023-04-29T08:04:51;98295.97;;;13.23;100.00
21902;BME280;11115;46.038;14.612;2023-04-29T08:07:24;98291.91;;;13.12;100.00
21902;BME280;11115;46.038;14.612;2023-04-29T08:10:07;98295.72;;;13.45;100.00
21902;BME280;11115;46.038;14.612;2023-04-29T08:12:38;98290.59;;;13.64;100.00
21902;BME280;11115;46.038;14.612;2023-04-29T08:15:09;98285.69;;;13.70;100.00
21902;BME280;11115;46.038;14.612;2023-04-29T08:17:39;98282.84;;;13.79;100.00
21902;BME280;11115;46.038;14.612;2023-04-29T08:20:12;98286.38;;;13.88;100.00
21902;BME280;11115;46.038;14.612;2023-04-29T08:22:45;98277.94;;;14.05;100.00
21902;BME280;11115;46.038;14.612;2023-04-29T08:25:18;98279.53;;;14.15;100.00
21902;BME280;11115;46.038;14.612;2023-04-29T08:28:00;98277.34;;;14.20;100.00
21902;BME280;11115;46.038;14.612;2023-04-29T08:30:32;98293.78;;;14.13;100.00
21902;BME280;11115;46.038;14.612;2023-04-29T08:33:09;98291.75;;;14.52;100.00
21902;BME280;11115;46.038;14.612;2023-04-29T08:35:40;98296.16;;;14.53;100.00
21902;BME280;11115;46.038;14.612;2023-04-29T08:38:13;98283.50;;;14.55;100.00
21902;BME280;11115;46.038;14.612;2023-04-29T08:40:49;98289.53;;;14.37;100.00
21902;BME280;11115;46.038;14.612;2023-04-29T08:43:19;98293.50;;;14.56;100.00
21902;BME280;11115;46.038;14.612;2023-04-29T08:45:51;98274.59;;;14.83;100.00
21902;BME280;11115;46.038;14.612;2023-04-29T08:48:21;98288.28;;;15.09;100.00
21902;BME280;11115;46.038;14.612;2023-04-29T08:50:51;98254.44;;;14.98;100.00
21902;BME280;11115;46.038;14.612;2023-04-29T08:53:21;98271.75;;;15.49;100.00
21902;BME280;11115;46.038;14.612;2023-04-29T08:55:54;98270.63;;;16.11;100.00
21902;BME280;11115;46.038;14.612;2023-04-29T08:58:28;98266.09;;;15.94;100.00
21902;BME280;11115;46.038;14.612;2023-04-29T09:01:00;98267.38;;;16.21;100.00
21902;BME280;11115;46.038;14.612;2023-04-29T09:04:07;98260.53;;;15.94;100.00
21902;BME280;11115;46.038;14.612;2023-04-29T09:06:46;98266.91;;;16.07;100.00
21902;BME280;11115;46.038;14.612;2023-04-29T09:09:16;98259.56;;;16.27;100.00
21902;BME280;11115;46.038;14.612;2023-04-29T09:11:48;98272.56;;;16.35;100.00
21902;BME280;11115;46.038;14.612;2023-04-29T09:14:19;98268.31;;;16.13;100.00
21902;BME280;11115;46.038;14.612;2023-04-29T09:17:05;98257.03;;;16.22;100.00
21902;BME280;11115;46.038;14.612;2023-04-29T09:19:37;98264.81;;;16.81;100.00
21902;BME280;11115;46.038;14.612;2023-04-29T09:22:07;98248.28;;;17.04;100.00
21902;BME280;11115;46.038;14.612;2023-04-29T09:24:45;98254.31;;;17.06;100.00
21902;BME280;11115;46.038;14.612;2023-04-29T09:27:26;98253.31;;;16.98;100.00
21902;BME280;11115;46.038;14.612;2023-04-29T09:30:06;98258.34;;;17.36;100.00
21902;BME280;11115;46.038;14.612;2023-04-29T09:32:41;98247.28;;;17.12;100.00
21902;BME280;11115;46.038;14.612;2023-04-29T09:35:26;98247.44;;;17.63;100.00
21902;BME280;11115;46.038;14.612;2023-04-29T09:38:12;98248.88;;;17.72;100.00
21902;BME280;11115;46.038;14.612;2023-04-29T09:40:45;98243.28;;;17.56;100.00
21902;BME280;11115;46.038;14.612;2023-04-29T09:43:25;98229.28;;;17.25;100.00
21902;BME280;11115;46.038;14.612;2023-04-29T09:46:02;98222.44;;;17.54;100.00
21902;BME280;11115;46.038;14.612;2023-04-29T09:48:33;98240.03;;;17.86;100.00
21902;BME280;11115;46.038;14.612;2023-04-29T09:51:12;98238.13;;;17.90;100.00
21902;BME280;11115;46.038;14.612;2023-04-29T09:53:44;98242.91;;;18.40;100.00
21902;BME280;11115;46.038;14.612;2023-04-29T09:56:19;98224.38;;;18.16;100.00
21902;BME280;11115;46.038;14.612;2023-04-29T09:59:07;98241.31;;;18.24;100.00
21902;BME280;11115;46.038;14.612;2023-04-29T10:01:40;98229.28;;;18.39;100.00
21902;BME280;11115;46.038;14.612;2023-04-29T10:04:15;98228.09;;;18.59;100.00
21902;BME280;11115;46.038;14.612;2023-04-29T10:06:52;98222.09;;;18.76;100.00
21902;BME280;11115;46.038;14.612;2023-04-29T10:09:25;98213.34;;;18.62;100.00
21902;BME280;11115;46.038;14.612;2023-04-29T10:11:55;98212.91;;;18.41;100.00
21902;BME280;11115;46.038;14.612;2023-04-29T10:14:24;98202.84;;;18.94;100.00
21902;BME280;11115;46.038;14.612;2023-04-29T10:17:15;98205.22;;;19.15;100.00
21902;BME280;11115;46.038;14.612;2023-04-29T10:20:04;98205.94;;;19.31;100.00
21902;BME280;11115;46.038;14.612;2023-04-29T10:22:48;98193.75;;;19.01;100.00
21902;BME280;11115;46.038;14.612;2023-04-29T10:25:25;98195.63;;;19.39;100.00
21902;BME280;11115;46.038;14.612;2023-04-29T10:27:57;98183.03;;;19.52;100.00
21902;BME280;11115;46.038;14.612;2023-04-29T10:30:43;98185.84;;;20.01;100.00
21902;BME280;11115;46.038;14.612;2023-04-29T10:33:16;98182.88;;;19.91;100.00
21902;BME280;11115;46.038;14.612;2023-04-29T10:35:47;98170.22;;;20.30;100.00
21902;BME280;11115;46.038;14.612;2023-04-29T10:40:59;98166.38;;;20.42;100.00
21902;BME280;11115;46.038;14.612;2023-04-29T10:43:39;98152.81;;;20.48;100.00
21902;BME280;11115;46.038;14.612;2023-04-29T10:46:25;98151.69;;;20.26;100.00
21902;BME280;11115;46.038;14.612;2023-04-29T10:49:03;98151.94;;;20.44;100.00
21902;BME280;11115;46.038;14.612;2023-04-29T10:51:38;98141.88;;;20.43;100.00
21902;BME280;11115;46.038;14.612;2023-04-29T10:56:50;98128.28;;;20.82;100.00
21902;BME280;11115;46.038;14.612;2023-04-29T11:02:09;98132.03;;;20.56;100.00
21902;BME280;11115;46.038;14.612;2023-04-29T11:05:10;98124.38;;;20.53;100.00
21902;BME280;11115;46.038;14.612;2023-04-29T11:07:46;98117.19;;;20.96;100.00
21902;BME280;11115;46.038;14.612;2023-04-29T11:10:19;98118.88;;;21.45;100.00
21902;BME280;11115;46.038;14.612;2023-04-29T11:12:47;98118.00;;;21.37;100.00
21902;BME280;11115;46.038;14.612;2023-04-29T11:15:20;98113.34;;;21.11;100.00
21902;BME280;11115;46.038;14.612;2023-04-29T11:17:58;98098.91;;;20.76;100.00
21902;BME280;11115;46.038;14.612;2023-04-29T11:23:55;98092.09;;;20.77;100.00
21902;BME280;11115;46.038;14.612;2023-04-29T11:26:23;98074.78;;;21.15;100.00
21902;BME280;11115;46.038;14.612;2023-04-29T11:28:53;98084.22;;;21.96;100.00
21902;BME280;11115;46.038;14.612;2023-04-29T11:31:31;98069.50;;;22.24;100.00
21902;BME280;11115;46.038;14.612;2023-04-29T11:34:06;98083.59;;;22.31;100.00
21902;BME280;11115;46.038;14.612;2023-04-29T11:36:34;98089.50;;;22.01;100.00
21902;BME280;11115;46.038;14.612;2023-04-29T11:39:07;98085.53;;;21.47;100.00
21902;BME280;11115;46.038;14.612;2023-04-29T11:41:45;98069.09;;;22.18;100.00
21902;BME280;11115;46.038;14.612;2023-04-29T11:44:21;98080.84;;;22.41;100.00
21902;BME280;11115;46.038;14.612;2023-04-29T11:47:06;98074.03;;;22.53;100.00
21902;BME280;11115;46.038;14.612;2023-04-29T11:49:37;98080.06;;;22.52;100.00
21902;BME280;11115;46.038;14.612;2023-04-29T11:52:08;98078.47;;;22.58;100.00
21902;BME280;11115;46.038;14.612;2023-04-29T11:54:37;98076.94;;;22.89;100.00
21902;BME280;11115;46.038;14.612;2023-04-29T11:57:14;98071.59;;;22.55;100.00
21902;BME280;11115;46.038;14.612;2023-04-29T11:59:59;98063.16;;;22.52;98.49
21902;BME280;11115;46.038;14.612;2023-04-29T12:02:42;98065.59;;;22.64;100.00
21902;BME280;11115;46.038;14.612;2023-04-29T12:05:13;98064.44;;;22.76;100.00
21902;BME280;11115;46.038;14.612;2023-04-29T12:07:48;98066.34;;;22.47;94.58
21902;BME280;11115;46.038;14.612;2023-04-29T12:10:22;98058.56;;;22.11;84.62
21902;BME280;11115;46.038;14.612;2023-04-29T12:12:49;98054.63;;;22.30;95.80
21902;BME280;11115;46.038;14.612;2023-04-29T12:15:19;98032.22;;;22.87;100.00
21902;BME280;11115;46.038;14.612;2023-04-29T12:17:52;98048.34;;;23.47;100.00
21902;BME280;11115;46.038;14.612;2023-04-29T12:20:22;98047.53;;;23.65;100.00
21902;BME280;11115;46.038;14.612;2023-04-29T12:23:20;98044.31;;;23.73;100.00
21902;BME280;11115;46.038;14.612;2023-04-29T12:25:57;98043.44;;;23.87;100.00
21902;BME280;11115;46.038;14.612;2023-04-29T12:28:25;98019.22;;;23.97;100.00
21902;BME280;11115;46.038;14.612;2023-04-29T12:31:02;98031.31;;;24.01;100.00
21902;BME280;11115;46.038;14.612;2023-04-29T12:33:30;98023.97;;;24.17;100.00
21902;BME280;11115;46.038;14.612;2023-04-29T12:36:02;98012.63;;;24.25;100.00
21902;BME280;11115;46.038;14.612;2023-04-29T12:38:35;98026.09;;;23.92;89.61
21902;BME280;11115;46.038;14.612;2023-04-29T12:41:13;98015.44;;;24.25;100.00
21902;BME280;11115;46.038;14.612;2023-04-29T12:43:43;97998.50;;;24.21;100.00
21902;BME280;11115;46.038;14.612;2023-04-29T12:46:23;98014.84;;;24.69;89.29
21902;BME280;11115;46.038;14.612;2023-04-29T12:48:55;98007.72;;;25.02;69.81
21902;BME280;11115;46.038;14.612;2023-04-29T12:51:31;98000.81;;;25.51;89.96
21902;BME280;11115;46.038;14.612;2023-04-29T12:54:10;97996.84;;;25.00;69.45
21902;BME280;11115;46.038;14.612;2023-04-29T12:56:47;97993.63;;;24.95;64.77
21902;BME280;11115;46.038;14.612;2023-04-29T12:59:20;97973.47;;;24.86;68.12
21902;BME280;11115;46.038;14.612;2023-04-29T13:01:51;97987.84;;;25.54;87.96
21902;BME280;11115;46.038;14.612;2023-04-29T13:04:20;97973.41;;;25.41;60.15
21902;BME280;11115;46.038;14.612;2023-04-29T13:06:53;97984.13;;;25.60;58.47
21902;BME280;11115;46.038;14.612;2023-04-29T13:09:25;97973.16;;;25.66;77.11
21902;BME280;11115;46.038;14.612;2023-04-29T13:11:55;97979.03;;;26.16;60.97
21902;BME280;11115;46.038;14.612;2023-04-29T13:14:32;97981.88;;;26.74;73.65
21902;BME280;11115;46.038;14.612;2023-04-29T13:17:17;97977.25;;;27.10;70.24
21902;BME280;11115;46.038;14.612;2023-04-29T13:19:45;97984.56;;;26.84;64.96
21902;BME280;11115;46.038;14.612;2023-04-29T13:22:31;97979.91;;;27.68;63.94
21902;BME280;11115;46.038;14.612;2023-04-29T13:25:06;97971.56;;;27.34;50.42
21902;BME280;11115;46.038;14.612;2023-04-29T13:27:36;97968.41;;;26.81;57.57
21902;BME280;11115;46.038;14.612;2023-04-29T13:30:08;97969.59;;;27.31;58.68
21902;BME280;11115;46.038;14.612;2023-04-29T13:32:53;97966.81;;;29.51;59.26
21902;BME280;11115;46.038;14.612;2023-04-29T13:35:37;97961.94;;;32.27;47.49
21902;BME280;11115;46.038;14.612;2023-04-29T13:38:17;97957.91;;;33.27;35.95
21902;BME280;11115;46.038;14.612;2023-04-29T13:40:49;97948.50;;;32.77;35.13
21902;BME280;11115;46.038;14.612;2023-04-29T13:43:24;97940.31;;;33.56;40.10
21902;BME280;11115;46.038;14.612;2023-04-29T13:46:05;97931.38;;;34.09;34.46
21902;BME280;11115;46.038;14.612;2023-04-29T13:48:38;97941.00;;;34.57;32.59
21902;BME280;11115;46.038;14.612;2023-04-29T13:51:36;97928.53;;;32.86;34.44
21902;BME280;11115;46.038;14.612;2023-04-29T13:54:36;97925.06;;;31.64;36.14